Time;durP1;ratioP1;P1;durP2;ratioP2;P2;SDS_P1;SDS_P2;PMS_P1;PMS_P2;Temp;Humidity;BMP_temperature;BMP_pressure;BME280_temperature;BME280_humidity;BME280_pressure;Samples;Min_cycle;Max_cycle;Signal;HPM_P1;HPM_P2
2023/12/29 00:00:13;;;;;;;3.40;1.60;;;;;;;15.72;41.84;100278.56;688011;28;1225;-88
2023/12/29 00:00:34;;;;;;;4.22;1.50;;;;;;;15.78;41.87;100267.16;690643;28;1222;-91
2023/12/29 00:00:55;;;;;;;3.53;1.33;;;;;;;15.74;42.02;100250.50;682871;29;1241;-91
2023/12/29 00:01:17;;;;;;;3.00;1.30;;;;;;;15.90;41.81;100267.13;684658;28;1341;-91
2023/12/29 00:01:38;;;;;;;2.00;1.10;;;;;;;15.82;41.77;100282.94;687959;28;1287;-91
2023/12/29 00:01:59;;;;;;;2.27;1.33;;;;;;;15.88;41.45;100261.84;685362;28;1223;-90
2023/12/29 00:02:20;;;;;;;2.40;1.30;;;;;;;15.70;42.03;100264.53;687737;28;1250;-87
2023/12/29 00:02:40;;;;;;;3.30;1.50;;;;;;;15.58;42.28;100268.94;687641;28;1284;-88
2023/12/29 00:03:01;;;;;;;3.22;1.40;;;;;;;15.62;42.01;100248.78;690921;28;1353;-90
2023/12/29 00:03:22;;;;;;;3.30;1.60;;;;;;;15.69;42.00;100270.69;694749;28;1183;-90
2023/12/29 00:03:42;;;;;;;6.30;1.50;;;;;;;15.76;41.82;100261.91;685385;28;1207;-90
2023/12/29 00:04:03;;;;;;;6.88;1.60;;;;;;;15.89;41.81;100265.38;688026;28;1227;-91
2023/12/29 00:04:24;;;;;;;5.72;1.27;;;;;;;15.86;41.87;100260.13;687808;28;1180;-90
2023/12/29 00:04:45;;;;;;;2.58;1.30;;;;;;;15.76;41.67;100254.88;688012;28;1252;-90
2023/12/29 00:05:06;;;;;;;2.22;1.30;;;;;;;15.75;41.92;100254.91;688024;28;1178;-90
2023/12/29 00:05:27;;;;;;;2.70;1.60;;;;;;;15.62;42.01;100249.63;687699;28;1338;-89
2023/12/29 00:05:48;;;;;;;2.55;1.60;;;;;;;15.74;41.96;100275.03;685490;28;1291;-91
2023/12/29 00:06:08;;;;;;;2.60;1.60;;;;;;;15.78;41.96;100252.25;688016;28;1185;-91
2023/12/29 00:06:29;;;;;;;1.90;1.20;;;;;;;15.85;41.78;100251.34;690442;28;1311;-91
2023/12/29 00:06:49;;;;;;;1.90;1.10;;;;;;;15.80;41.76;100258.38;685334;28;1162;-89
2023/12/29 00:07:10;;;;;;;1.53;1.00;;;;;;;15.76;41.94;100293.47;688200;28;1139;-88
2023/12/29 00:07:30;;;;;;;2.92;1.45;;;;;;;15.79;41.93;100261.03;690531;28;1232;-90
2023/12/29 00:07:51;;;;;;;3.90;1.58;;;;;;;15.74;42.04;100251.38;685176;28;1290;-89
2023/12/29 00:08:12;;;;;;;5.33;1.70;;;;;;;15.79;41.92;100264.50;685354;28;1368;-91
2023/12/29 00:08:32;;;;;;;4.00;1.30;;;;;;;15.79;42.16;100263.66;690632;28;1181;-88
2023/12/29 00:08:53;;;;;;;3.50;1.17;;;;;;;15.65;42.21;100266.28;690683;28;1157;-90
2023/12/29 00:09:16;;;;;;;4.27;1.30;;;;;;;15.82;41.81;100243.47;688093;28;1240;-91
2023/12/29 00:09:40;;;;;;;5.90;1.58;;;;;;;15.83;41.91;100262.75;690878;28;1415;-90
2023/12/29 00:10:01;;;;;;;5.55;1.63;;;;;;;15.69;42.03;100249.63;688041;28;1437;-89
2023/12/29 00:10:21;;;;;;;5.60;1.50;;;;;;;15.68;41.96;100245.25;686437;28;1148;-91
2023/12/29 00:10:43;;;;;;;3.30;1.42;;;;;;;15.78;41.87;100265.41;685580;28;1205;-89
2023/12/29 00:11:04;;;;;;;4.18;1.40;;;;;;;15.75;41.98;100254.91;688968;28;1328;-90
2023/12/29 00:11:25;;;;;;;4.13;1.50;;;;;;;15.54;42.33;100246.13;689550;28;1786;-89
2023/12/29 00:11:50;;;;;;;4.20;1.40;;;;;;;15.63;42.33;100298.72;688028;28;1407;-89
2023/12/29 00:12:11;;;;;;;3.50;1.40;;;;;;;15.68;42.26;100248.75;693252;28;1270;-90
2023/12/29 00:12:31;;;;;;;2.60;1.30;;;;;;;15.73;42.25;100257.53;693402;28;1249;-90
2023/12/29 00:12:52;;;;;;;3.38;1.50;;;;;;;15.76;42.05;100251.38;690619;28;1466;-89
2023/12/29 00:13:13;;;;;;;2.58;1.40;;;;;;;15.70;41.99;100254.91;690585;28;1291;-90
2023/12/29 00:13:33;;;;;;;7.53;1.60;;;;;;;15.68;42.23;100248.75;688238;28;1244;-89
2023/12/29 00:13:54;;;;;;;8.40;1.50;;;;;;;15.58;42.28;100253.16;685389;28;1203;-90
2023/12/29 00:14:14;;;;;;;9.50;1.60;;;;;;;15.69;42.20;100275.94;690493;28;1090;-88
2023/12/29 00:14:39;;;;;;;4.80;1.47;;;;;;;15.65;42.33;100253.13;690877;28;787;-91
2023/12/29 00:15:00;;;;;;;6.20;1.75;;;;;;;15.63;42.21;100230.34;690708;28;1365;-90
2023/12/29 00:15:21;;;;;;;7.90;1.70;;;;;;;15.73;42.04;100244.38;684934;28;1400;-89
2023/12/29 00:15:42;;;;;;;7.30;1.60;;;;;;;15.80;41.93;100241.72;688111;28;1197;-91
2023/12/29 00:16:03;;;;;;;2.85;1.33;;;;;;;15.75;42.20;100247.84;685391;28;1221;-91
2023/12/29 00:16:24;;;;;;;3.53;1.50;;;;;;;15.68;42.17;100245.25;685365;28;1172;-89
2023/12/29 00:16:44;;;;;;;3.70;1.60;;;;;;;15.70;42.29;100251.38;688025;28;1213;-90
2023/12/29 00:17:05;;;;;;;6.28;1.73;;;;;;;15.79;42.10;100235.56;688077;28;1226;-90
2023/12/29 00:17:26;;;;;;;8.10;1.77;;;;;;;15.76;42.20;100230.34;692646;28;1172;-90
2023/12/29 00:17:47;;;;;;;10.32;1.55;;;;;;;15.78;42.24;100243.50;693554;28;1067;-88
2023/12/29 00:18:07;;;;;;;6.40;1.40;;;;;;;15.83;42.14;100237.34;687936;28;1261;-89
2023/12/29 00:18:28;;;;;;;6.13;1.58;;;;;;;15.88;41.65;100246.06;687900;28;1180;-90
2023/12/29 00:18:49;;;;;;;3.15;1.50;;;;;;;15.79;42.07;100235.56;688085;28;1287;-90
2023/12/29 00:19:10;;;;;;;4.43;1.60;;;;;;;15.88;42.17;100243.44;685386;28;1374;-91
2023/12/29 00:19:31;;;;;;;3.90;1.30;;;;;;;15.85;41.95;100239.97;682610;28;1281;-91
2023/12/29 00:19:53;;;;;;;4.18;1.50;;;;;;;15.85;42.09;100225.03;685536;28;1295;-90
2023/12/29 00:20:14;;;;;;;4.50;1.60;;;;;;;15.83;42.12;100237.34;690359;28;1347;-92
2023/12/29 00:20:34;;;;;;;5.25;1.50;;;;;;;15.89;42.06;100237.31;685367;28;1358;-89
2023/12/29 00:20:55;;;;;;;5.67;1.60;;;;;;;15.92;42.07;100246.09;688509;28;1281;-91
2023/12/29 00:21:16;;;;;;;3.90;1.30;;;;;;;15.95;41.81;100225.00;685574;28;1288;-91
2023/12/29 00:21:37;;;;;;;3.08;1.15;;;;;;;15.97;41.95;100239.06;687839;28;1312;-91
2023/12/29 00:21:59;;;;;;;3.85;1.20;;;;;;;15.97;41.82;100233.81;685356;28;1267;-91
2023/12/29 00:22:21;;;;;;;4.07;1.40;;;;;;;15.92;41.86;100240.81;686428;28;1201;-89
2023/12/29 00:22:41;;;;;;;5.03;1.33;;;;;;;15.94;41.85;100239.94;690468;28;1270;-88
2023/12/29 00:23:02;;;;;;;5.07;1.50;;;;;;;16.01;41.83;100243.44;690580;28;1264;-90
2023/12/29 00:23:23;;;;;;;5.65;1.60;;;;;;;16.05;41.88;100247.81;690802;28;1419;-92
2023/12/29 00:23:44;;;;;;;2.73;1.50;;;;;;;15.99;41.71;100247.81;690728;28;1119;-90
2023/12/29 00:24:05;;;;;;;3.90;1.63;;;;;;;16.07;41.83;100245.16;688798;28;1313;-91
2023/12/29 00:24:26;;;;;;;4.30;1.70;;;;;;;16.12;41.49;100225.81;690716;28;1315;-91
2023/12/29 00:24:47;;;;;;;4.65;1.60;;;;;;;16.07;41.63;100227.63;685352;28;1254;-90
2023/12/29 00:25:08;;;;;;;3.40;1.37;;;;;;;15.94;41.80;100233.78;682580;29;1250;-89
2023/12/29 00:25:29;;;;;;;2.90;1.30;;;;;;;15.80;42.07;100255.75;686898;28;1298;-90
2023/12/29 00:25:49;;;;;;;2.85;1.42;;;;;;;15.53;42.50;100223.34;690896;28;1238;-90
2023/12/29 00:26:10;;;;;;;3.37;1.60;;;;;;;15.66;42.29;100229.47;688117;28;1289;-88
2023/12/29 00:26:32;;;;;;;8.73;1.85;;;;;;;15.60;42.52;100246.13;690347;28;1291;-89
2023/12/29 00:26:54;;;;;;;7.80;1.52;;;;;;;15.69;42.51;100212.81;687007;28;1302;-89
2023/12/29 00:27:14;;;;;;;7.70;1.60;;;;;;;15.73;42.38;100238.25;690545;28;1425;-89
2023/12/29 00:27:36;;;;;;;1.80;1.20;;;;;;;15.74;42.19;100229.47;687949;28;1181;-89
2023/12/29 00:27:57;;;;;;;2.88;1.33;;;;;;;15.65;42.47;100211.94;685355;28;1268;-90
2023/12/29 00:28:18;;;;;;;5.60;1.58;;;;;;;15.66;42.28;100239.13;690534;28;1321;-88
2023/12/29 00:28:40;;;;;;;6.40;1.67;;;;;;;15.68;42.32;100253.16;693320;28;1234;-88
2023/12/29 00:29:01;;;;;;;4.25;1.50;;;;;;;15.57;42.58;100246.16;692739;28;1275;-89
2023/12/29 00:29:21;;;;;;;3.67;1.50;;;;;;;15.79;42.25;100234.72;687813;28;1991;-90
2023/12/29 00:29:43;;;;;;;3.10;1.40;;;;;;;15.83;42.24;100242.59;687940;28;1375;-89
2023/12/29 00:30:05;;;;;;;3.42;1.40;;;;;;;15.77;42.26;100221.56;693438;28;1233;-90
2023/12/29 00:30:29;;;;;;;5.10;1.40;;;;;;;15.80;42.08;100225.94;687018;28;1237;-88
2023/12/29 00:30:50;;;;;;;6.10;1.60;;;;;;;15.70;42.13;100217.19;688078;28;1237;-90
2023/12/29 00:31:16;;;;;;;4.22;1.42;;;;;;;15.67;42.25;100235.63;695985;28;1199;-89
2023/12/29 00:31:37;;;;;;;5.35;1.40;;;;;;;15.66;42.55;100240.00;692120;28;1275;-88
2023/12/29 00:31:57;;;;;;;4.97;1.50;;;;;;;15.80;42.17;100236.47;687792;28;1156;-89
2023/12/29 00:32:18;;;;;;;4.78;1.60;;;;;;;15.81;42.12;100230.31;692573;28;1255;-90
2023/12/29 00:32:39;;;;;;;4.40;1.50;;;;;;;15.75;42.29;100213.66;684828;28;1155;-88
2023/12/29 00:32:59;;;;;;;4.40;1.40;;;;;;;15.83;42.10;100258.38;690571;28;1419;-87
2023/12/29 00:33:20;;;;;;;3.90;1.40;;;;;;;15.87;42.05;100220.66;687824;28;1280;-90
2023/12/29 00:33:42;;;;;;;2.58;1.40;;;;;;;15.91;42.07;100232.03;687904;28;1256;-87
2023/12/29 00:34:02;;;;;;;2.50;1.50;;;;;;;15.88;42.18;100227.66;690400;28;1332;-89
2023/12/29 00:34:23;;;;;;;3.10;1.67;;;;;;;15.89;42.15;100231.19;685219;28;1267;-91
2023/12/29 00:34:44;;;;;;;3.10;1.60;;;;;;;15.93;42.27;100216.25;685294;28;1344;-90
2023/12/29 00:35:04;;;;;;;2.80;1.50;;;;;;;15.92;41.91;100225.03;688079;28;1257;-89
2023/12/29 00:35:25;;;;;;;2.23;1.37;;;;;;;15.93;42.05;100232.03;687816;28;1063;-88
2023/12/29 00:35:46;;;;;;;1.83;1.15;;;;;;;15.95;41.92;100232.91;688280;28;1254;-88
2023/12/29 00:36:06;;;;;;;2.75;1.33;;;;;;;15.88;42.05;100226.81;693338;28;1333;-89
2023/12/29 00:36:27;;;;;;;2.80;1.30;;;;;;;15.90;41.88;100218.03;687724;28;1306;-90
2023/12/29 00:36:48;;;;;;;3.47;1.42;;;;;;;15.96;42.05;100222.38;685429;28;1344;-90
2023/12/29 00:37:09;;;;;;;3.37;1.37;;;;;;;15.99;41.71;100208.34;690688;28;1265;-90
2023/12/29 00:37:30;;;;;;;3.90;1.43;;;;;;;15.84;42.17;100231.19;690528;28;1295;-89
2023/12/29 00:37:52;;;;;;;4.63;1.40;;;;;;;15.90;41.92;100223.28;690675;28;1161;-90
2023/12/29 00:38:13;;;;;;;6.00;1.60;;;;;;;16.01;41.89;100238.16;690881;28;1227;-91
2023/12/29 00:38:34;;;;;;;6.10;1.60;;;;;;;16.04;41.80;100235.50;682595;28;1234;-90
2023/12/29 00:38:58;;;;;;;5.88;1.70;;;;;;;15.97;41.93;100203.09;685628;28;1377;-90
2023/12/29 00:39:19;;;;;;;5.60;1.52;;;;;;;16.11;41.86;100231.13;685525;28;1401;-90
2023/12/29 00:39:40;;;;;;;6.17;1.50;;;;;;;15.98;41.92;100217.13;688318;28;1147;-90
2023/12/29 00:40:00;;;;;;;4.47;1.40;;;;;;;15.93;42.13;100226.78;693423;28;1215;-91
2023/12/29 00:40:21;;;;;;;6.60;1.40;;;;;;;15.91;42.03;100208.34;689913;28;1420;-90
2023/12/29 00:40:42;;;;;;;6.10;1.43;;;;;;;15.86;42.06;100216.28;688141;28;1253;-90
2023/12/29 00:41:04;;;;;;;4.93;1.38;;;;;;;15.95;42.08;100222.38;690926;28;1194;-90
2023/12/29 00:41:25;;;;;;;2.92;1.20;;;;;;;15.89;42.16;100220.66;692248;28;1256;-90
2023/12/29 00:41:46;;;;;;;3.10;1.10;;;;;;;15.79;42.11;100203.16;685210;28;1192;-91
2023/12/29 00:42:07;;;;;;;5.28;1.27;;;;;;;15.85;42.17;100209.25;687936;28;1383;-90
2023/12/29 00:42:28;;;;;;;7.00;1.50;;;;;;;15.92;42.07;100209.25;690577;28;1267;-92
2023/12/29 00:42:49;;;;;;;7.55;1.65;;;;;;;15.90;42.00;100211.88;690666;28;1232;-91
2023/12/29 00:43:09;;;;;;;6.93;1.70;;;;;;;15.90;41.94;100238.19;682744;28;1171;-90
2023/12/29 00:43:30;;;;;;;7.57;1.80;;;;;;;15.87;42.27;100228.53;685205;28;1294;-89
2023/12/29 00:43:51;;;;;;;5.50;1.65;;;;;;;15.85;42.15;100209.25;687999;28;1280;-90
2023/12/29 00:44:12;;;;;;;6.63;1.60;;;;;;;15.76;42.48;100215.41;690699;28;1195;-90
2023/12/29 00:44:34;;;;;;;6.43;1.52;;;;;;;15.78;42.46;100241.72;690377;28;1297;-89
2023/12/29 00:44:54;;;;;;;6.90;1.50;;;;;;;15.81;42.53;100238.22;690743;28;1339;-88
2023/12/29 00:45:15;;;;;;;7.73;1.70;;;;;;;15.80;42.36;100220.69;693513;28;1218;-91
2023/12/29 00:45:36;;;;;;;5.82;1.50;;;;;;;15.66;42.40;100223.34;688076;28;1185;-89
2023/12/29 00:45:56;;;;;;;5.88;1.50;;;;;;;15.72;42.50;100218.06;688192;28;764;-89
2023/12/29 00:46:17;;;;;;;3.33;1.30;;;;;;;15.81;42.30;100210.16;685098;28;1223;-90
2023/12/29 00:46:37;;;;;;;5.32;1.52;;;;;;;15.85;42.43;100229.44;685502;28;1333;-90
2023/12/29 00:46:59;;;;;;;5.25;1.40;;;;;;;15.78;42.38;100257.50;688213;28;1252;-90
2023/12/29 00:47:23;;;;;;;5.40;1.52;;;;;;;15.73;42.53;100251.41;688830;28;1262;-88
2023/12/29 00:47:44;;;;;;;3.95;1.42;;;;;;;15.76;42.53;100238.22;690870;28;1326;-89
2023/12/29 00:48:05;;;;;;;5.05;1.50;;;;;;;15.74;42.43;100224.22;690806;28;1232;-90
2023/12/29 00:48:26;;;;;;;4.97;1.35;;;;;;;15.74;42.43;100211.06;687543;28;1304;-88
2023/12/29 00:48:48;;;;;;;4.53;1.30;;;;;;;15.81;42.60;100214.53;690880;28;1256;-89
2023/12/29 00:49:08;;;;;;;2.45;1.10;;;;;;;15.85;42.51;100234.72;690763;28;1382;-89
2023/12/29 00:49:29;;;;;;;2.30;1.10;;;;;;;15.84;42.09;100223.31;690693;28;1902;-90
2023/12/29 00:49:50;;;;;;;2.72;1.25;;;;;;;15.80;42.33;100232.06;693447;28;1179;-89
2023/12/29 00:50:11;;;;;;;3.45;1.33;;;;;;;15.81;42.64;100225.94;696187;28;1318;-91
2023/12/29 00:50:31;;;;;;;4.27;1.50;;;;;;;15.87;42.51;100218.00;696125;28;1242;-89
2023/12/29 00:50:52;;;;;;;2.90;1.33;;;;;;;15.76;42.39;100249.59;690533;28;1320;-89
2023/12/29 00:51:12;;;;;;;4.13;1.40;;;;;;;15.72;42.55;100212.78;687982;28;1319;-90
2023/12/29 00:51:40;;;;;;;4.47;1.50;;;;;;;15.83;42.57;100216.28;680167;29;1272;-88
2023/12/29 00:52:02;;;;;;;6.72;1.65;;;;;;;15.85;42.27;100206.63;688133;28;1344;-91
2023/12/29 00:52:23;;;;;;;7.55;1.70;;;;;;;15.85;42.57;100204.00;690867;28;1229;-90
2023/12/29 00:52:43;;;;;;;6.78;1.52;;;;;;;15.86;42.04;100213.63;685149;28;1258;-91
2023/12/29 00:53:04;;;;;;;3.53;1.20;;;;;;;15.94;42.29;100224.16;690831;28;1235;-90
2023/12/29 00:53:25;;;;;;;2.23;0.90;;;;;;;15.96;42.17;100208.34;693193;28;1242;-91
2023/12/29 00:53:45;;;;;;;3.03;1.15;;;;;;;16.01;42.17;100227.63;687651;28;1186;-90
2023/12/29 00:54:07;;;;;;;2.88;1.25;;;;;;;15.86;42.24;100211.00;688056;28;1300;-90
2023/12/29 00:54:28;;;;;;;4.90;1.40;;;;;;;15.99;42.30;100221.50;685236;28;1264;-89
2023/12/29 00:54:48;;;;;;;3.90;1.20;;;;;;;16.01;42.00;100209.22;688045;28;1253;-91
2023/12/29 00:55:09;;;;;;;4.32;1.35;;;;;;;16.01;42.08;100223.25;688192;28;1193;-91
2023/12/29 00:55:30;;;;;;;3.05;1.48;;;;;;;15.94;42.25;100208.38;690515;28;1373;-90
2023/12/29 00:55:51;;;;;;;5.20;1.60;;;;;;;15.96;42.38;100209.22;688036;28;1277;-92
2023/12/29 00:56:12;;;;;;;5.43;1.55;;;;;;;15.91;42.10;100239.94;688173;28;1142;-90
2023/12/29 00:56:33;;;;;;;4.80;1.40;;;;;;;15.96;42.26;100224.13;685245;28;1229;-90
2023/12/29 00:56:54;;;;;;;3.53;1.45;;;;;;;16.06;42.18;100206.56;683225;28;1494;-91
2023/12/29 00:57:15;;;;;;;2.40;1.30;;;;;;;16.07;41.94;100209.19;684019;28;1604;-90
2023/12/29 00:57:36;;;;;;;2.90;1.30;;;;;;;16.11;42.00;100215.31;682724;28;1221;-91
2023/12/29 00:57:57;;;;;;;2.30;1.10;;;;;;;16.06;42.08;100212.72;693593;28;995;-91
2023/12/29 00:58:18;;;;;;;1.83;1.00;;;;;;;16.10;42.02;100214.44;693299;28;1195;-90
2023/12/29 00:58:39;;;;;;;2.73;1.00;;;;;;;16.02;42.02;100211.84;687975;28;1282;-89
2023/12/29 00:58:59;;;;;;;5.60;1.10;;;;;;;15.98;42.34;100203.97;685154;28;1296;-90
2023/12/29 00:59:20;;;;;;;7.50;1.20;;;;;;;15.97;42.26;100213.59;690448;28;1279;-90
2023/12/29 00:59:41;;;;;;;4.63;1.30;;;;;;;16.01;42.11;100225.00;688137;28;1362;-90
2023/12/29 01:00:02;;;;;;;4.13;1.35;;;;;;;15.92;42.22;100211.88;682656;28;1255;-90
2023/12/29 01:00:23;;;;;;;1.92;1.10;;;;;;;15.99;42.18;100210.97;689105;28;1615;-89
2023/12/29 01:00:43;;;;;;;3.80;1.38;;;;;;;15.94;42.20;100210.09;688108;28;1251;-90
2023/12/29 01:01:11;;;;;;;4.95;1.50;;;;;;;15.85;42.46;100214.53;687916;28;1312;-90
2023/12/29 01:01:35;;;;;;;4.35;1.50;;;;;;;15.82;42.63;100225.06;688179;28;1134;-90
2023/12/29 01:01:55;;;;;;;2.35;1.10;;;;;;;15.81;42.73;100207.53;688059;28;1243;-90
2023/12/29 01:02:16;;;;;;;3.38;1.20;;;;;;;15.86;42.55;100221.53;685454;28;1426;-89
2023/12/29 01:02:37;;;;;;;4.30;1.30;;;;;;;15.82;42.60;100235.59;685484;28;1142;-89
2023/12/29 01:02:57;;;;;;;4.55;1.30;;;;;;;15.81;42.37;100210.16;685358;28;1200;-90
2023/12/29 01:03:18;;;;;;;3.72;1.10;;;;;;;15.93;42.37;100221.53;691010;28;1753;-90
2023/12/29 01:03:41;;;;;;;3.67;1.30;;;;;;;15.92;42.79;100220.63;688020;28;1344;-89
2023/12/29 01:04:02;;;;;;;3.85;1.35;;;;;;;15.82;42.32;100214.53;684424;28;1683;-90
2023/12/29 01:04:22;;;;;;;4.28;1.50;;;;;;;15.72;42.85;100223.31;685154;28;1220;-88
2023/12/29 01:04:43;;;;;;;2.97;1.27;;;;;;;15.80;42.73;100218.91;688069;28;1170;-90
2023/12/29 01:05:05;;;;;;;3.95;1.17;;;;;;;15.86;42.72;100236.47;685277;28;1307;-89
2023/12/29 01:05:27;;;;;;;3.80;1.20;;;;;;;15.76;42.77;100204.88;690181;28;1446;-90
2023/12/29 01:05:48;;;;;;;3.80;1.15;;;;;;;15.88;42.47;100219.75;686682;28;1359;-90
2023/12/29 01:06:08;;;;;;;1.93;1.13;;;;;;;15.94;42.48;100202.22;690538;28;1305;-89
2023/12/29 01:06:29;;;;;;;4.57;1.50;;;;;;;15.99;42.25;100211.84;685296;28;1156;-91
2023/12/29 01:06:50;;;;;;;5.80;1.60;;;;;;;16.02;42.48;100225.00;688236;28;1319;-90
2023/12/29 01:07:10;;;;;;;7.18;1.77;;;;;;;15.99;42.41;100221.50;688115;28;1217;-89
2023/12/29 01:07:31;;;;;;;4.40;1.30;;;;;;;15.96;42.34;100232.03;692894;28;1355;-90
2023/12/29 01:07:53;;;;;;;4.00;1.30;;;;;;;16.06;42.30;100217.09;693546;28;1284;-91
2023/12/29 01:08:13;;;;;;;3.40;1.10;;;;;;;16.00;42.47;100218.00;693156;28;1195;-90
2023/12/29 01:08:37;;;;;;;3.60;1.20;;;;;;;15.95;42.57;100219.75;690784;28;1351;-90
2023/12/29 01:08:57;;;;;;;4.30;1.30;;;;;;;15.65;42.76;100221.56;688015;28;1404;-87
2023/12/29 01:09:18;;;;;;;3.17;1.25;;;;;;;15.82;42.68;100214.53;690236;28;1990;-90
2023/12/29 01:09:40;;;;;;;3.47;1.40;;;;;;;15.86;42.67;100205.75;690772;28;1271;-90
2023/12/29 01:10:01;;;;;;;5.68;1.70;;;;;;;15.93;42.54;100221.53;690885;28;1261;-89
2023/12/29 01:10:22;;;;;;;5.20;1.55;;;;;;;15.94;42.20;100224.16;685369;28;1211;-89
2023/12/29 01:10:42;;;;;;;4.45;1.42;;;;;;;15.85;42.57;100208.41;687965;28;1162;-89
2023/12/29 01:11:03;;;;;;;3.65;1.50;;;;;;;15.90;42.64;100210.13;688149;28;1212;-90
2023/12/29 01:11:24;;;;;;;5.37;1.60;;;;;;;15.95;42.58;100199.59;693579;28;1217;-90
2023/12/29 01:11:45;;;;;;;4.72;1.40;;;;;;;16.00;42.38;100196.94;687604;28;1252;-91
2023/12/29 01:12:06;;;;;;;2.15;1.20;;;;;;;16.06;42.39;100207.44;687922;28;1170;-90
2023/12/29 01:12:27;;;;;;;2.10;1.10;;;;;;;16.00;42.53;100215.38;691018;28;1146;-91
2023/12/29 01:12:47;;;;;;;4.70;1.27;;;;;;;15.96;42.54;100187.28;690621;28;1238;-88
2023/12/29 01:13:09;;;;;;;4.80;1.30;;;;;;;15.96;42.44;100210.97;690819;28;1257;-89
2023/12/29 01:13:30;;;;;;;4.50;1.40;;;;;;;15.95;42.37;100203.97;687808;28;1120;-89
2023/12/29 01:13:50;;;;;;;2.75;1.33;;;;;;;16.01;42.34;100204.84;688017;28;1192;-91
2023/12/29 01:14:11;;;;;;;2.90;1.35;;;;;;;15.75;42.54;100199.66;688089;28;1161;-88
2023/12/29 01:14:32;;;;;;;3.25;1.40;;;;;;;15.78;42.68;100199.63;687996;28;1202;-90
2023/12/29 01:14:53;;;;;;;2.30;1.30;;;;;;;15.69;42.68;100197.03;693134;28;1185;-88
2023/12/29 01:15:14;;;;;;;2.47;1.30;;;;;;;15.92;42.54;100183.78;687896;28;1245;-89
2023/12/29 01:15:35;;;;;;;2.50;1.50;;;;;;;15.93;42.47;100205.72;688139;28;1335;-90
2023/12/29 01:15:56;;;;;;;3.13;1.50;;;;;;;15.90;42.71;100190.81;688223;28;1246;-90
2023/12/29 01:16:16;;;;;;;4.30;1.60;;;;;;;15.89;42.46;100197.84;687940;28;1338;-88
2023/12/29 01:16:37;;;;;;;4.90;1.50;;;;;;;15.92;42.50;100177.69;690866;28;1183;-89
2023/12/29 01:16:58;;;;;;;4.07;1.40;;;;;;;15.95;42.38;100194.31;690711;28;1195;-91
2023/12/29 01:17:18;;;;;;;5.20;1.60;;;;;;;15.85;42.57;100192.63;690219;28;1210;-90
2023/12/29 01:17:39;;;;;;;4.17;1.50;;;;;;;15.95;42.58;100194.31;690758;28;1145;-90
2023/12/29 01:18:00;;;;;;;4.18;1.60;;;;;;;15.87;42.67;100207.50;688218;28;1149;-88
2023/12/29 01:18:21;;;;;;;1.60;1.20;;;;;;;15.94;42.42;100189.06;688602;28;1221;-90
2023/12/29 01:18:41;;;;;;;1.75;1.20;;;;;;;15.83;42.70;100189.09;687820;28;1143;-90
2023/12/29 01:19:02;;;;;;;2.30;1.23;;;;;;;15.87;42.64;100181.19;690862;28;1168;-90
2023/12/29 01:19:23;;;;;;;3.10;1.40;;;;;;;15.93;42.56;100179.41;693798;28;1220;-89
2023/12/29 01:19:43;;;;;;;4.43;1.60;;;;;;;15.93;42.51;100195.22;690142;28;1286;-89
2023/12/29 01:20:04;;;;;;;4.35;1.60;;;;;;;15.96;42.25;100174.13;690210;28;1287;-89
2023/12/29 01:20:25;;;;;;;5.22;1.67;;;;;;;15.99;42.22;100190.78;691756;28;1217;-89
2023/12/29 01:20:46;;;;;;;3.90;1.40;;;;;;;15.95;42.27;100182.91;687388;28;1221;-87
2023/12/29 01:21:06;;;;;;;10.65;1.35;;;;;;;15.90;42.30;100210.13;689063;28;1198;-88
2023/12/29 01:21:27;;;;;;;9.60;1.20;;;;;;;15.77;42.56;100190.00;685575;28;1362;-85
2023/12/29 01:21:50;;;;;;;12.32;1.38;;;;;;;15.80;42.73;100174.19;686339;28;1278;-90
2023/12/29 01:22:10;;;;;;;6.23;1.40;;;;;;;15.92;42.54;100209.25;689565;28;1163;-88
2023/12/29 01:22:31;;;;;;;5.53;1.20;;;;;;;15.93;42.42;100195.22;686681;28;1296;-90
2023/12/29 01:22:52;;;;;;;2.47;1.02;;;;;;;15.98;42.51;100177.66;687466;28;1332;-91
2023/12/29 01:23:13;;;;;;;3.45;1.00;;;;;;;16.05;42.25;100200.44;693116;28;1189;-89
2023/12/29 01:23:33;;;;;;;4.87;1.30;;;;;;;16.00;42.53;100189.03;692978;28;1211;-89
2023/12/29 01:23:54;;;;;;;4.97;1.40;;;;;;;15.92;42.53;100188.19;688966;28;1163;-90
2023/12/29 01:24:14;;;;;;;3.55;1.45;;;;;;;15.85;42.48;100176.84;689231;28;1196;-90
2023/12/29 01:24:36;;;;;;;2.67;1.30;;;;;;;15.95;42.35;100194.31;693975;28;1200;-88
2023/12/29 01:25:00;;;;;;;3.03;1.25;;;;;;;15.88;42.43;100193.44;689294;28;1286;-89
2023/12/29 01:25:20;;;;;;;3.25;1.10;;;;;;;15.88;42.46;100193.44;694139;28;1229;-89
2023/12/29 01:25:41;;;;;;;2.80;1.20;;;;;;;15.96;42.52;100190.81;693680;28;1274;-90
2023/12/29 01:26:02;;;;;;;3.78;1.40;;;;;;;15.89;42.65;100183.81;694806;28;1181;-91
2023/12/29 01:26:23;;;;;;;2.65;1.40;;;;;;;15.99;42.38;100195.19;692195;28;1327;-90
2023/12/29 01:26:44;;;;;;;2.53;1.20;;;;;;;16.01;42.22;100190.78;692716;28;1194;-89
2023/12/29 01:27:05;;;;;;;1.50;1.10;;;;;;;16.08;42.31;100195.16;689804;28;1551;-88
2023/12/29 01:27:26;;;;;;;1.53;1.10;;;;;;;15.98;42.17;100178.50;685683;28;1262;-88
2023/12/29 01:27:46;;;;;;;1.92;1.40;;;;;;;15.99;42.37;100200.47;688934;28;1230;-88
2023/12/29 01:28:07;;;;;;;2.78;1.70;;;;;;;16.03;42.27;100197.81;689781;28;1284;-89
2023/12/29 01:28:31;;;;;;;3.40;1.77;;;;;;;15.98;42.28;100182.91;690415;28;1216;-90
2023/12/29 01:28:52;;;;;;;3.13;1.40;;;;;;;15.98;42.53;100182.91;690352;28;1284;-90
2023/12/29 01:29:13;;;;;;;3.27;1.20;;;;;;;16.11;42.12;100189.00;686817;28;1180;-90
2023/12/29 01:29:34;;;;;;;4.30;1.40;;;;;;;16.02;42.14;100166.22;691820;28;1906;-89
2023/12/29 01:29:54;;;;;;;4.97;1.43;;;;;;;15.99;42.43;100187.28;691598;28;1272;-89
2023/12/29 01:30:15;;;;;;;5.53;1.38;;;;;;;15.98;42.37;100172.41;685744;28;1243;-89
2023/12/29 01:30:36;;;;;;;4.38;1.33;;;;;;;15.97;42.49;100204.84;685416;28;1343;-89
2023/12/29 01:30:56;;;;;;;4.03;1.40;;;;;;;15.87;42.36;100191.72;693423;28;1255;-89
2023/12/29 01:31:19;;;;;;;6.70;1.50;;;;;;;15.94;42.57;100191.69;690908;28;1370;-90
2023/12/29 01:31:39;;;;;;;7.63;1.50;;;;;;;15.89;42.38;100205.75;690926;28;1319;-90
2023/12/29 01:32:03;;;;;;;7.20;1.40;;;;;;;15.88;42.41;100171.53;688124;28;1248;-89
2023/12/29 01:32:23;;;;;;;3.97;1.40;;;;;;;15.89;42.69;100171.56;687381;28;1242;-89
2023/12/29 01:32:44;;;;;;;3.00;1.30;;;;;;;15.94;42.24;100184.69;688082;28;1142;-90
2023/12/29 01:33:05;;;;;;;3.13;1.30;;;;;;;15.93;42.48;100179.41;687958;28;1166;-90
2023/12/29 01:33:25;;;;;;;2.35;1.33;;;;;;;15.90;42.63;100196.09;683959;28;1216;-90
2023/12/29 01:33:46;;;;;;;2.63;1.40;;;;;;;15.89;42.28;100189.09;690694;28;1069;-90
2023/12/29 01:34:07;;;;;;;2.83;1.40;;;;;;;15.98;42.49;100203.97;685316;28;1371;-91
2023/12/29 01:34:32;;;;;;;3.53;1.50;;;;;;;15.99;42.38;100179.41;692190;28;1179;-89
2023/12/29 01:34:52;;;;;;;3.05;1.33;;;;;;;16.07;42.34;100206.56;682792;29;1209;-90
2023/12/29 01:35:13;;;;;;;3.90;1.70;;;;;;;15.92;42.29;100172.41;685111;28;1323;-90
2023/12/29 01:35:34;;;;;;;3.20;1.60;;;;;;;15.88;42.42;100175.03;687880;28;1358;-90
2023/12/29 01:35:54;;;;;;;3.57;1.77;;;;;;;16.01;42.33;100190.78;690734;28;1198;-90
2023/12/29 01:36:21;;;;;;;1.98;1.30;;;;;;;15.95;42.39;100199.59;690489;28;1480;-89
2023/12/29 01:36:41;;;;;;;3.25;1.20;;;;;;;15.86;42.43;100202.25;688035;28;1342;-89
2023/12/29 01:37:03;;;;;;;3.50;1.30;;;;;;;15.90;42.52;100196.97;685201;28;1171;-90
2023/12/29 01:37:23;;;;;;;4.03;1.40;;;;;;;15.95;42.39;100193.44;686023;28;1402;-91
2023/12/29 01:37:44;;;;;;;2.65;1.42;;;;;;;16.04;42.30;100196.03;690957;28;1252;-90
2023/12/29 01:38:05;;;;;;;2.83;1.50;;;;;;;15.99;42.33;100189.94;693335;28;1173;-89
2023/12/29 01:38:25;;;;;;;2.40;1.40;;;;;;;15.97;42.30;100184.66;693158;28;1247;-90
2023/12/29 01:38:46;;;;;;;1.88;1.23;;;;;;;15.86;42.49;100195.22;687790;28;1258;-89
2023/12/29 01:39:07;;;;;;;2.08;1.20;;;;;;;15.86;42.56;100184.69;685304;28;1200;-90
2023/12/29 01:39:28;;;;;;;2.40;1.20;;;;;;;15.90;42.41;100191.72;687928;28;1307;-90
2023/12/29 01:39:49;;;;;;;2.50;1.20;;;;;;;15.90;42.51;100202.25;688014;28;1228;-90
2023/12/29 01:40:10;;;;;;;3.70;1.20;;;;;;;15.90;42.44;100212.75;686012;28;1209;-89
2023/12/29 01:40:31;;;;;;;7.13;1.45;;;;;;;15.91;42.25;100189.94;687799;28;1395;-88